LIRN/NAP METAR and TAF weather

Enter ICAO airport designator
Station Type Date Time Source
LIRN METAR 2020/09/28 09:50 UTC NOAA

LIRN 280950Z 20004KT 120V240 8000 RA SCT020 BKN060 17/12 Q1012 NOSIG


Station Type Date Time Source
LIRN Decoded METAR 2020/09/28 09:50 UTC NOAA

Napoli / Capodichino, Italy (LIRN) 40-51N 014-18E 72M
Sep 28, 2020 - 05:50 AM EDT / 2020.09.28 0950 UTC
Wind: from the SSW (200 degrees) at 5 MPH (4 KT) (direction variable):0
Visibility: 4 mile(s):0
Sky conditions: mostly cloudy
Weather: rain
Temperature: 62 F (17 C)
Dew Point: 53 F (12 C)
Relative Humidity: 72%
Pressure (altimeter): 29.88 in. Hg (1012 hPa)
ob: LIRN 280950Z 20004KT 120V240 8000 RA SCT020 BKN060 17/12 Q1012 NOSIG
cycle: 10

Station Type Date Time Source
LIRN TAF 2020/09/28 06:21 UTC NOAA

TAF LIRN 280500Z 2806/2906 26015KT 9999 SCT030
TEMPO 2806/2816 TSRA

Example: see airport list